createdAt,value
2023-10-03T00:00:11.379Z,55.33
2023-10-03T00:02:37.907Z,55.43
2023-10-03T00:05:04.443Z,56.12
2023-10-03T00:07:30.898Z,56.40
2023-10-03T00:09:57.357Z,56.47
2023-10-03T00:12:23.850Z,56.44
2023-10-03T00:14:50.373Z,56.44
2023-10-03T00:17:16.841Z,56.07
2023-10-03T00:19:43.389Z,56.28
2023-10-03T00:22:09.878Z,56.98
2023-10-03T00:24:36.360Z,56.92
2023-10-03T00:27:02.847Z,56.93
2023-10-03T00:29:29.352Z,58.26
2023-10-03T00:31:55.853Z,57.39
2023-10-03T00:34:22.308Z,57.97
2023-10-03T00:36:48.787Z,57.39
2023-10-03T00:39:15.249Z,57.51
2023-10-03T00:41:41.927Z,58.20
2023-10-03T00:44:08.534Z,58.93
2023-10-03T00:46:35.038Z,58.77
2023-10-03T00:49:01.723Z,58.71
2023-10-03T00:51:28.388Z,58.29
2023-10-03T00:53:55.018Z,57.96
2023-10-03T00:56:21.502Z,58.57
2023-10-03T00:58:47.961Z,58.24
2023-10-03T01:01:15.811Z,58.29
2023-10-03T01:03:42.668Z,58.61
2023-10-03T01:06:09.327Z,58.50
2023-10-03T01:08:35.837Z,58.48
2023-10-03T01:11:02.390Z,60.05
2023-10-03T01:13:28.848Z,60.19
2023-10-03T01:15:55.342Z,59.63
2023-10-03T01:18:22.026Z,59.30
2023-10-03T01:20:48.664Z,60.28
2023-10-03T01:23:15.321Z,59.27
2023-10-03T01:25:41.815Z,58.91
2023-10-03T01:28:08.286Z,58.64
2023-10-03T01:30:37.806Z,59.32
2023-10-03T01:33:04.382Z,59.00
2023-10-03T01:35:30.942Z,58.84
2023-10-03T01:37:57.541Z,58.44
2023-10-03T01:40:23.985Z,58.85
2023-10-03T01:42:50.439Z,58.98
2023-10-03T01:45:16.909Z,58.83
2023-10-03T01:47:43.558Z,59.00
2023-10-03T01:50:10.330Z,59.02
2023-10-03T01:52:36.942Z,59.08
2023-10-03T01:55:03.438Z,59.80
2023-10-03T01:57:29.964Z,61.13
2023-10-03T01:59:56.511Z,61.49
2023-10-03T02:02:23.060Z,60.01
2023-10-03T02:04:49.555Z,59.89
2023-10-03T02:07:16.027Z,59.62
2023-10-03T02:09:42.482Z,59.91
2023-10-03T02:12:08.970Z,59.73
2023-10-03T02:14:35.444Z,59.23
2023-10-03T02:17:01.939Z,59.45
2023-10-03T02:19:28.528Z,59.57
2023-10-03T02:21:55.060Z,59.82
2023-10-03T02:24:21.580Z,59.77
2023-10-03T02:26:48.041Z,60.93
2023-10-03T02:29:14.565Z,59.89
2023-10-03T02:31:41.071Z,59.98
2023-10-03T02:34:07.613Z,60.82
2023-10-03T02:36:34.119Z,60.44
2023-10-03T02:39:00.948Z,60.33
2023-10-03T02:41:27.633Z,60.33
2023-10-03T02:43:54.094Z,61.13
2023-10-03T02:46:20.817Z,60.29
2023-10-03T02:48:47.307Z,60.97
2023-10-03T02:51:13.780Z,60.16
2023-10-03T02:53:40.331Z,59.34
2023-10-03T02:56:06.861Z,59.19
2023-10-03T02:58:33.350Z,59.62
2023-10-03T03:00:59.917Z,59.99
2023-10-03T03:03:26.491Z,59.30
2023-10-03T03:05:53.048Z,59.75
2023-10-03T03:08:19.655Z,60.32
2023-10-03T03:10:46.370Z,59.88
2023-10-03T03:13:12.836Z,60.02
2023-10-03T03:15:39.343Z,60.32
2023-10-03T03:18:05.958Z,60.92
2023-10-03T03:20:32.641Z,61.71
2023-10-03T03:22:59.158Z,61.06
2023-10-03T03:25:25.626Z,60.87
2023-10-03T03:27:52.074Z,61.84
2023-10-03T03:30:18.548Z,62.21
2023-10-03T03:32:45.101Z,64.21
2023-10-03T03:35:11.661Z,63.54
2023-10-03T03:37:38.153Z,63.20
2023-10-03T03:40:04.644Z,63.99
2023-10-03T03:42:31.103Z,65.06
2023-10-03T03:44:57.598Z,64.28
2023-10-03T03:47:24.089Z,64.82
2023-10-03T03:49:50.728Z,64.88
2023-10-03T03:52:17.359Z,64.55
2023-10-03T03:54:43.835Z,64.29
2023-10-03T03:57:10.363Z,65.10
2023-10-03T03:59:37.013Z,65.28
2023-10-03T04:02:03.551Z,65.16
2023-10-03T04:04:30.094Z,65.85
2023-10-03T04:06:56.602Z,65.27
2023-10-03T04:09:23.042Z,65.68
2023-10-03T04:11:49.777Z,65.19
2023-10-03T04:14:16.348Z,64.31
2023-10-03T04:16:42.886Z,64.57
2023-10-03T04:19:09.868Z,64.81
2023-10-03T04:21:36.822Z,64.58
2023-10-03T04:24:03.375Z,65.06
2023-10-03T04:26:31.519Z,64.52
2023-10-03T04:28:58.041Z,63.92
2023-10-03T04:31:24.544Z,64.57
2023-10-03T04:33:51.113Z,63.95
2023-10-03T04:36:17.674Z,62.82
2023-10-03T04:38:44.440Z,62.67
2023-10-03T04:41:11.142Z,63.12
2023-10-03T04:43:37.823Z,63.34
2023-10-03T04:46:04.411Z,62.39
2023-10-03T04:48:31.100Z,63.18
2023-10-03T04:50:57.715Z,63.76
2023-10-03T04:53:24.276Z,64.32
2023-10-03T04:55:50.823Z,63.97
2023-10-03T04:58:17.568Z,63.00
2023-10-03T05:00:44.246Z,63.46
2023-10-03T05:03:11.180Z,63.95
2023-10-03T05:05:40.911Z,64.65
2023-10-03T05:08:09.663Z,64.55
2023-10-03T05:10:37.792Z,64.01
2023-10-03T05:13:04.310Z,65.12
2023-10-03T05:15:30.794Z,65.34
2023-10-03T05:17:57.364Z,64.83
2023-10-03T05:20:23.971Z,64.96
2023-10-03T05:22:50.460Z,64.96
2023-10-03T05:25:16.928Z,66.72
2023-10-03T05:27:43.454Z,65.66
2023-10-03T05:30:10.079Z,64.47
2023-10-03T05:32:36.709Z,64.31
2023-10-03T05:35:03.198Z,64.49
2023-10-03T05:37:29.814Z,65.20
2023-10-03T05:39:56.292Z,65.79
2023-10-03T05:42:22.780Z,64.94
2023-10-03T05:44:49.403Z,64.31
2023-10-03T05:47:15.873Z,63.75
2023-10-03T05:49:42.353Z,64.55
2023-10-03T05:52:08.780Z,63.97
2023-10-03T05:54:35.353Z,64.93
2023-10-03T05:57:01.852Z,63.23
2023-10-03T05:59:28.588Z,62.39
2023-10-03T06:01:55.121Z,62.13
2023-10-03T06:04:21.629Z,61.88
2023-10-03T06:06:48.116Z,61.47
2023-10-03T06:09:14.716Z,62.25
2023-10-03T06:11:41.340Z,62.75
2023-10-03T06:14:07.844Z,62.67
2023-10-03T06:16:34.302Z,61.42
2023-10-03T06:19:00.943Z,62.57
2023-10-03T06:21:27.765Z,61.31
2023-10-03T06:23:54.394Z,60.32
2023-10-03T06:26:20.887Z,59.42
2023-10-03T06:28:47.414Z,59.64
2023-10-03T06:31:13.904Z,59.03
2023-10-03T06:33:42.509Z,59.44
2023-10-03T06:36:10.502Z,59.46
2023-10-03T06:38:37.064Z,60.44
2023-10-03T06:41:03.579Z,60.42
2023-10-03T06:43:30.042Z,60.82
2023-10-03T06:45:56.725Z,60.69
2023-10-03T06:48:23.294Z,60.62
2023-10-03T06:50:49.893Z,60.87
2023-10-03T06:53:16.329Z,60.96
2023-10-03T06:55:42.853Z,61.32
2023-10-03T06:58:09.544Z,60.73
2023-10-03T07:00:36.006Z,59.95
2023-10-03T07:03:02.657Z,59.79
2023-10-03T07:05:29.256Z,59.85
2023-10-03T07:07:55.829Z,58.49
2023-10-03T07:10:22.329Z,58.30
2023-10-03T07:12:48.799Z,57.89
2023-10-03T07:15:15.247Z,58.44
2023-10-03T07:17:41.932Z,58.32
2023-10-03T07:20:08.443Z,57.73
2023-10-03T07:22:35.010Z,56.84
2023-10-03T07:25:01.600Z,55.86
2023-10-03T07:27:28.108Z,56.23
2023-10-03T07:29:54.603Z,56.51
2023-10-03T07:32:21.280Z,55.84
2023-10-03T07:34:47.865Z,56.13
2023-10-03T07:37:14.584Z,57.03
2023-10-03T07:39:41.254Z,57.58
2023-10-03T07:42:07.915Z,56.54
2023-10-03T07:44:34.502Z,56.46
2023-10-03T07:47:01.127Z,55.84
2023-10-03T07:49:27.599Z,55.16
2023-10-03T07:51:54.092Z,56.46
2023-10-03T07:54:20.598Z,55.89
2023-10-03T07:56:47.149Z,54.96
2023-10-03T07:59:13.613Z,55.29
2023-10-03T08:01:53.218Z,53.37
2023-10-03T08:04:26.653Z,54.18
2023-10-03T08:06:53.265Z,53.15
2023-10-03T08:09:19.821Z,52.54
2023-10-03T08:11:46.327Z,52.36
2023-10-03T08:14:12.980Z,52.98
2023-10-03T08:16:39.659Z,52.74
2023-10-03T08:19:06.318Z,53.41
2023-10-03T08:21:32.764Z,52.67
2023-10-03T08:23:59.372Z,52.14
2023-10-03T08:26:25.885Z,51.63
2023-10-03T08:28:52.565Z,51.21
2023-10-03T08:31:19.031Z,50.85
2023-10-03T08:33:45.567Z,51.12
2023-10-03T08:36:12.108Z,49.87
2023-10-03T08:38:38.604Z,48.69
2023-10-03T08:41:05.096Z,50.35
2023-10-03T08:43:31.575Z,50.07
2023-10-03T08:45:58.178Z,49.08
2023-10-03T08:48:24.874Z,48.71
2023-10-03T08:50:51.754Z,49.03
2023-10-03T08:53:18.644Z,49.01
2023-10-03T08:55:45.214Z,48.12
2023-10-03T08:58:11.739Z,48.08
2023-10-03T09:00:38.218Z,48.36
2023-10-03T09:03:04.797Z,48.31
2023-10-03T09:05:32.594Z,47.54
2023-10-03T09:07:59.102Z,48.04
2023-10-03T09:10:25.582Z,48.09
2023-10-03T09:12:52.058Z,47.56
2023-10-03T09:15:18.567Z,48.41
2023-10-03T09:17:45.088Z,48.17
2023-10-03T09:20:11.713Z,47.60
2023-10-03T09:22:38.180Z,48.16
2023-10-03T09:25:04.661Z,48.33
2023-10-03T09:27:31.161Z,47.76
2023-10-03T09:29:57.656Z,47.94
2023-10-03T09:32:24.127Z,47.98
2023-10-03T09:34:50.685Z,47.17
2023-10-03T09:37:17.122Z,46.85
2023-10-03T09:39:43.653Z,46.42
2023-10-03T09:42:10.196Z,46.03
2023-10-03T09:44:36.715Z,46.80
2023-10-03T09:47:03.200Z,46.24
2023-10-03T09:49:29.677Z,45.85
2023-10-03T09:51:56.237Z,45.42
2023-10-03T09:54:22.728Z,45.26
2023-10-03T09:56:49.287Z,45.47
2023-10-03T09:59:16.960Z,44.95
2023-10-03T10:01:43.930Z,44.50
2023-10-03T10:04:10.630Z,45.04
2023-10-03T10:06:37.333Z,44.27
2023-10-03T10:09:04.033Z,43.77
2023-10-03T10:11:30.754Z,43.31
2023-10-03T10:13:57.414Z,42.75
2023-10-03T10:16:23.973Z,41.78
2023-10-03T10:18:50.663Z,41.96
2023-10-03T10:21:17.275Z,41.70
2023-10-03T10:23:43.787Z,41.71
2023-10-03T10:26:10.242Z,41.52
2023-10-03T10:28:36.684Z,40.85
2023-10-03T10:31:03.194Z,41.30
2023-10-03T10:33:29.763Z,40.00
2023-10-03T10:35:56.541Z,41.15
2023-10-03T10:38:23.205Z,42.78
2023-10-03T10:40:49.702Z,42.04
2023-10-03T10:43:16.339Z,41.07
2023-10-03T10:45:42.945Z,41.49
2023-10-03T10:48:09.513Z,41.19
2023-10-03T10:50:36.204Z,41.59
2023-10-03T10:53:02.669Z,41.74
2023-10-03T10:55:29.136Z,41.73
2023-10-03T10:57:55.590Z,41.44
2023-10-03T11:00:22.326Z,41.42
2023-10-03T11:02:49.110Z,42.20
2023-10-03T11:05:15.738Z,42.36
2023-10-03T11:07:42.223Z,42.75
2023-10-03T11:10:23.421Z,42.67
2023-10-03T11:12:55.132Z,42.15
2023-10-03T11:15:21.740Z,42.22
2023-10-03T11:17:48.281Z,42.68
2023-10-03T11:20:14.796Z,42.93
2023-10-03T11:22:41.319Z,42.10
2023-10-03T11:25:07.756Z,41.35
2023-10-03T11:27:34.202Z,42.75
2023-10-03T11:30:00.794Z,42.45
2023-10-03T11:32:27.382Z,41.78
2023-10-03T11:34:53.950Z,42.42
2023-10-03T11:37:20.395Z,41.35
2023-10-03T11:39:46.964Z,41.35
2023-10-03T11:42:13.584Z,41.72
2023-10-03T11:44:40.080Z,41.21
2023-10-03T11:47:06.625Z,41.37
2023-10-03T11:49:33.158Z,42.51
2023-10-03T11:51:59.884Z,42.22
2023-10-03T11:54:26.415Z,42.06
2023-10-03T11:56:52.851Z,42.55
2023-10-03T11:59:19.320Z,42.55
2023-10-03T12:01:45.742Z,42.95
2023-10-03T12:04:12.507Z,43.13
2023-10-03T12:06:39.095Z,43.02
2023-10-03T12:09:05.788Z,42.44
2023-10-03T12:11:32.522Z,42.27
2023-10-03T12:13:59.016Z,42.12
2023-10-03T12:16:25.779Z,42.67
2023-10-03T12:18:52.376Z,42.01
2023-10-03T12:21:19.005Z,41.92
2023-10-03T12:23:48.663Z,42.17
2023-10-03T12:26:26.609Z,42.26
2023-10-03T12:28:56.827Z,42.27
2023-10-03T12:31:23.309Z,42.26
2023-10-03T12:33:49.954Z,42.82
2023-10-03T12:36:16.471Z,42.44
2023-10-03T12:38:43.014Z,43.17
2023-10-03T12:41:09.526Z,42.74
2023-10-03T12:43:36.094Z,42.09
2023-10-03T12:46:02.653Z,42.49
2023-10-03T12:48:29.263Z,42.54
2023-10-03T12:50:56.097Z,42.91
2023-10-03T12:53:22.664Z,41.99
2023-10-03T12:55:49.122Z,42.76
2023-10-03T12:58:15.694Z,41.86
2023-10-03T13:00:42.177Z,42.80
2023-10-03T13:03:08.854Z,43.18
2023-10-03T13:05:35.507Z,43.62
2023-10-03T13:08:01.989Z,42.63
2023-10-03T13:10:28.449Z,42.11
2023-10-03T13:12:54.992Z,42.24
2023-10-03T13:15:21.534Z,42.89
2023-10-03T13:17:48.308Z,42.43
2023-10-03T13:20:14.813Z,41.95
2023-10-03T13:22:41.234Z,42.10
2023-10-03T13:25:07.691Z,42.80
2023-10-03T13:27:34.161Z,42.73
2023-10-03T13:30:02.548Z,41.66
2023-10-03T13:32:31.578Z,41.96
2023-10-03T13:34:58.006Z,42.30
2023-10-03T13:37:24.446Z,42.66
2023-10-03T13:39:50.955Z,41.71
2023-10-03T13:42:17.486Z,42.20
2023-10-03T13:44:43.981Z,41.83
2023-10-03T13:47:10.507Z,41.42
2023-10-03T13:49:36.995Z,42.35
2023-10-03T13:52:03.475Z,42.04
2023-10-03T13:54:29.924Z,42.57
2023-10-03T13:56:56.512Z,41.46
2023-10-03T13:59:23.148Z,42.55
2023-10-03T14:01:49.589Z,42.26
2023-10-03T14:04:16.024Z,42.71
2023-10-03T14:06:42.713Z,42.08
2023-10-03T14:09:09.337Z,41.41
2023-10-03T14:11:35.936Z,40.77
2023-10-03T14:14:02.423Z,41.75
2023-10-03T14:16:29.004Z,41.24
2023-10-03T14:18:55.660Z,41.51
2023-10-03T14:21:32.040Z,42.62
2023-10-03T14:24:06.626Z,42.20
2023-10-03T14:26:33.073Z,43.05
2023-10-03T14:28:59.589Z,43.61
2023-10-03T14:31:26.267Z,43.15
2023-10-03T14:33:52.783Z,41.71
2023-10-03T14:36:19.338Z,43.16
2023-10-03T14:38:46.193Z,43.00
2023-10-03T14:41:12.821Z,43.55
2023-10-03T14:43:39.279Z,44.36
2023-10-03T14:46:05.967Z,43.73
2023-10-03T14:48:32.761Z,43.27
2023-10-03T14:50:59.371Z,43.39
2023-10-03T14:53:25.914Z,43.27
2023-10-03T14:55:52.405Z,43.65
2023-10-03T14:58:18.844Z,43.81
2023-10-03T15:00:45.501Z,43.42
2023-10-03T15:03:12.218Z,43.21
2023-10-03T15:05:38.907Z,43.24
2023-10-03T15:08:05.430Z,43.29
2023-10-03T15:10:31.976Z,44.92
2023-10-03T15:12:58.489Z,46.83
2023-10-03T15:15:25.071Z,47.59
2023-10-03T15:17:51.658Z,47.30
2023-10-03T15:20:18.256Z,48.99
2023-10-03T15:22:44.739Z,48.83
2023-10-03T15:25:11.258Z,48.33
2023-10-03T15:27:37.766Z,47.22
2023-10-03T15:30:04.682Z,46.63
2023-10-03T15:32:31.261Z,46.79
2023-10-03T15:34:57.793Z,45.92
2023-10-03T15:37:24.283Z,45.33
2023-10-03T15:39:52.328Z,45.67
2023-10-03T15:42:18.926Z,47.00
2023-10-03T15:44:54.540Z,47.57
2023-10-03T15:47:31.880Z,50.35
2023-10-03T15:49:58.341Z,50.95
2023-10-03T15:52:24.814Z,51.37
2023-10-03T15:54:51.302Z,53.08
2023-10-03T15:57:17.982Z,52.84
2023-10-03T15:59:44.528Z,51.42
2023-10-03T16:02:11.020Z,52.54
2023-10-03T16:04:37.741Z,50.32
2023-10-03T16:07:04.277Z,49.61
2023-10-03T16:09:30.790Z,48.97
2023-10-03T16:11:57.374Z,48.76
2023-10-03T16:14:23.826Z,48.26
2023-10-03T16:16:50.377Z,45.40
2023-10-03T16:19:16.958Z,45.96
2023-10-03T16:21:43.457Z,45.42
2023-10-03T16:24:09.965Z,44.07
2023-10-03T16:26:36.540Z,44.25
2023-10-03T16:29:03.312Z,43.67
2023-10-03T16:31:30.102Z,43.87
2023-10-03T16:33:56.579Z,43.96
2023-10-03T16:36:23.083Z,43.41
2023-10-03T16:38:49.617Z,42.89
2023-10-03T16:41:16.073Z,42.97
2023-10-03T16:43:42.494Z,42.40
2023-10-03T16:46:08.942Z,42.47
2023-10-03T16:48:35.511Z,41.99
2023-10-03T16:51:02.112Z,42.46
2023-10-03T16:53:28.618Z,42.79
2023-10-03T16:55:55.049Z,41.97
2023-10-03T16:58:21.520Z,42.39
2023-10-03T17:00:48.037Z,41.65
2023-10-03T17:03:14.532Z,42.48
2023-10-03T17:05:41.053Z,42.61
2023-10-03T17:08:07.523Z,42.73
2023-10-03T17:10:34.132Z,42.63
2023-10-03T17:13:00.563Z,43.20
2023-10-03T17:15:27.131Z,43.52
2023-10-03T17:17:55.019Z,43.38
2023-10-03T17:20:23.664Z,44.03
2023-10-03T17:22:50.103Z,43.16
2023-10-03T17:25:16.608Z,42.98
2023-10-03T17:27:43.164Z,42.95
2023-10-03T17:30:09.678Z,42.95
2023-10-03T17:32:36.244Z,42.99
2023-10-03T17:35:02.707Z,42.92
2023-10-03T17:37:29.218Z,42.99
2023-10-03T17:39:55.681Z,42.84
2023-10-03T17:42:22.284Z,42.89
2023-10-03T17:44:48.819Z,42.54
2023-10-03T17:47:15.251Z,43.41
2023-10-03T17:49:41.698Z,42.91
2023-10-03T17:52:08.166Z,42.81
2023-10-03T17:54:35.085Z,42.31
2023-10-03T17:57:02.371Z,42.66
2023-10-03T17:59:28.916Z,42.79
2023-10-03T18:01:55.412Z,43.61
2023-10-03T18:04:22.047Z,45.37
2023-10-03T18:06:48.582Z,45.85
2023-10-03T18:09:16.127Z,46.53
2023-10-03T18:11:42.899Z,46.28
2023-10-03T18:14:09.402Z,45.37
2023-10-03T18:16:35.955Z,45.03
2023-10-03T18:19:02.596Z,44.53
2023-10-03T18:21:29.346Z,44.02
2023-10-03T18:23:55.953Z,43.77
2023-10-03T18:26:22.475Z,43.71
2023-10-03T18:28:48.982Z,43.21
2023-10-03T18:31:15.566Z,43.24
2023-10-03T18:33:42.109Z,43.19
2023-10-03T18:36:08.626Z,42.85
2023-10-03T18:38:35.060Z,43.63
2023-10-03T18:41:01.595Z,43.27
2023-10-03T18:43:28.229Z,42.66
2023-10-03T18:45:58.557Z,42.98
2023-10-03T18:48:25.600Z,42.90
2023-10-03T18:50:52.174Z,43.53
2023-10-03T18:53:18.685Z,44.57
2023-10-03T18:55:45.229Z,44.70
2023-10-03T18:58:11.721Z,44.66
2023-10-03T19:00:38.401Z,44.82
2023-10-03T19:03:05.173Z,44.57
2023-10-03T19:05:31.901Z,44.48
2023-10-03T19:07:58.362Z,45.21
2023-10-03T19:10:24.841Z,44.87
2023-10-03T19:12:51.357Z,44.16
2023-10-03T19:15:17.983Z,44.10
2023-10-03T19:17:44.550Z,44.05
2023-10-03T19:20:11.050Z,44.20
2023-10-03T19:22:37.497Z,44.16
2023-10-03T19:25:04.000Z,44.31
2023-10-03T19:27:30.440Z,44.31
2023-10-03T19:29:56.957Z,44.37
2023-10-03T19:32:23.402Z,44.39
2023-10-03T19:34:49.943Z,44.60
2023-10-03T19:37:16.412Z,44.40
2023-10-03T19:39:43.932Z,44.23
2023-10-03T19:42:10.453Z,44.95
2023-10-03T19:44:36.937Z,45.01
2023-10-03T19:47:03.417Z,44.79
2023-10-03T19:49:29.881Z,44.87
2023-10-03T19:51:56.555Z,44.97
2023-10-03T19:54:23.185Z,45.09
2023-10-03T19:56:49.947Z,44.86
2023-10-03T19:59:16.452Z,45.05
2023-10-03T20:01:43.074Z,46.58
2023-10-03T20:04:09.534Z,46.98
2023-10-03T20:06:35.985Z,47.69
2023-10-03T20:09:02.726Z,47.36
2023-10-03T20:11:29.636Z,47.62
2023-10-03T20:13:56.112Z,47.55
2023-10-03T20:16:22.682Z,47.27
2023-10-03T20:18:49.355Z,47.19
2023-10-03T20:21:16.199Z,46.77
2023-10-03T20:23:42.655Z,46.06
2023-10-03T20:26:09.188Z,45.55
2023-10-03T20:28:35.683Z,46.37
2023-10-03T20:31:02.198Z,46.62
2023-10-03T20:33:28.855Z,46.04
2023-10-03T20:35:55.460Z,45.33
2023-10-03T20:38:22.290Z,44.95
2023-10-03T20:40:48.702Z,45.41
2023-10-03T20:43:15.353Z,45.72
2023-10-03T20:45:41.841Z,45.78
2023-10-03T20:48:08.348Z,45.81
2023-10-03T20:50:34.963Z,45.80
2023-10-03T20:53:01.732Z,45.86
2023-10-03T20:55:28.500Z,46.04
2023-10-03T20:57:54.963Z,46.13
2023-10-03T21:00:21.521Z,46.55
2023-10-03T21:05:14.764Z,45.93
2023-10-03T21:07:41.355Z,45.65
2023-10-03T21:10:07.833Z,45.28
2023-10-03T21:12:34.476Z,44.71
2023-10-03T21:15:01.097Z,44.77
2023-10-03T21:17:27.650Z,44.94
2023-10-03T21:19:54.283Z,45.15
2023-10-03T21:22:21.023Z,45.38
2023-10-03T21:24:47.468Z,44.95
2023-10-03T21:27:14.034Z,45.35
2023-10-03T21:29:40.576Z,45.81
2023-10-03T21:32:07.036Z,45.95
2023-10-03T21:34:33.540Z,47.47
2023-10-03T21:37:00.193Z,46.79
2023-10-03T21:39:26.728Z,47.44
2023-10-03T21:41:53.467Z,47.40
2023-10-03T21:44:19.954Z,48.96
2023-10-03T21:46:46.384Z,48.45
2023-10-03T21:49:12.824Z,48.80
2023-10-03T21:51:39.342Z,48.39
2023-10-03T21:54:06.045Z,48.01
2023-10-03T21:56:32.588Z,49.40
2023-10-03T21:58:59.183Z,50.28
2023-10-03T22:01:25.760Z,50.55
2023-10-03T22:03:52.291Z,49.87
2023-10-03T22:06:18.816Z,50.46
2023-10-03T22:08:45.340Z,49.87
2023-10-03T22:11:11.898Z,50.37
2023-10-03T22:13:38.346Z,50.52
2023-10-03T22:16:04.850Z,50.73
2023-10-03T22:18:31.398Z,50.01
2023-10-03T22:20:57.904Z,49.95
2023-10-03T22:23:24.422Z,50.24
2023-10-03T22:25:50.888Z,50.87
2023-10-03T22:28:17.300Z,50.58
2023-10-03T22:30:43.840Z,51.05
2023-10-03T22:33:10.561Z,50.99
2023-10-03T22:35:37.099Z,50.81
2023-10-03T22:38:08.401Z,50.90
2023-10-03T22:40:35.711Z,50.90
2023-10-03T22:43:02.166Z,51.85
2023-10-03T22:45:28.690Z,51.51
2023-10-03T22:47:55.258Z,51.88
2023-10-03T22:50:21.809Z,50.95
2023-10-03T22:52:48.307Z,50.97
2023-10-03T22:55:14.755Z,50.29
2023-10-03T22:57:41.224Z,50.31
2023-10-03T23:00:07.716Z,50.45
2023-10-03T23:02:34.256Z,50.63
2023-10-03T23:05:00.750Z,50.85
2023-10-03T23:07:27.308Z,50.37
2023-10-03T23:09:53.795Z,50.65
2023-10-03T23:12:20.288Z,49.85
2023-10-03T23:14:46.744Z,50.16
2023-10-03T23:17:13.248Z,49.70
2023-10-03T23:19:39.697Z,49.63
2023-10-03T23:22:06.164Z,50.03
2023-10-03T23:24:32.682Z,49.99
2023-10-03T23:26:59.197Z,49.88
2023-10-03T23:29:25.694Z,49.94
2023-10-03T23:31:52.211Z,49.31
2023-10-03T23:34:18.688Z,49.44
2023-10-03T23:36:45.181Z,49.40
2023-10-03T23:39:11.719Z,49.63
2023-10-03T23:41:38.210Z,49.45
2023-10-03T23:44:04.657Z,49.80
2023-10-03T23:46:31.204Z,49.96
2023-10-03T23:48:57.650Z,49.70
2023-10-03T23:51:24.172Z,49.61
2023-10-03T23:53:50.783Z,49.62
2023-10-03T23:56:17.288Z,49.59
2023-10-03T23:58:43.792Z,49.87
